sensor_id;sensor_type;location;lat;lon;timestamp;P1;durP1;ratioP1;P2;durP2;ratioP2
25915;SDS011;13719;48.188;11.618;2023-08-17T00:00:15;7.10;;;4.38;;
25915;SDS011;13719;48.188;11.618;2023-08-17T00:02:45;8.70;;;4.22;;
25915;SDS011;13719;48.188;11.618;2023-08-17T00:05:14;6.60;;;4.30;;
25915;SDS011;13719;48.188;11.618;2023-08-17T00:07:42;7.93;;;4.65;;
25915;SDS011;13719;48.188;11.618;2023-08-17T00:10:11;5.65;;;4.13;;
25915;SDS011;13719;48.188;11.618;2023-08-17T00:12:40;8.18;;;4.95;;
25915;SDS011;13719;48.188;11.618;2023-08-17T00:15:09;5.15;;;4.13;;
25915;SDS011;13719;48.188;11.618;2023-08-17T00:17:37;8.45;;;4.53;;
25915;SDS011;13719;48.188;11.618;2023-08-17T00:20:08;7.45;;;4.30;;
25915;SDS011;13719;48.188;11.618;2023-08-17T00:22:37;6.53;;;4.32;;
25915;SDS011;13719;48.188;11.618;2023-08-17T00:25:05;8.27;;;5.07;;
25915;SDS011;13719;48.188;11.618;2023-08-17T00:27:34;7.88;;;4.90;;
25915;SDS011;13719;48.188;11.618;2023-08-17T00:30:02;6.00;;;4.05;;
25915;SDS011;13719;48.188;11.618;2023-08-17T00:32:31;8.48;;;4.40;;
25915;SDS011;13719;48.188;11.618;2023-08-17T00:34:59;5.22;;;3.85;;
25915;SDS011;13719;48.188;11.618;2023-08-17T00:37:29;6.97;;;4.80;;
25915;SDS011;13719;48.188;11.618;2023-08-17T00:39:57;10.50;;;4.55;;
25915;SDS011;13719;48.188;11.618;2023-08-17T00:42:26;8.75;;;4.75;;
25915;SDS011;13719;48.188;11.618;2023-08-17T00:44:54;7.07;;;4.68;;
25915;SDS011;13719;48.188;11.618;2023-08-17T00:47:23;7.88;;;4.57;;
25915;SDS011;13719;48.188;11.618;2023-08-17T00:49:53;7.38;;;4.43;;
25915;SDS011;13719;48.188;11.618;2023-08-17T00:52:22;7.28;;;4.38;;
25915;SDS011;13719;48.188;11.618;2023-08-17T00:54:52;7.70;;;4.72;;
25915;SDS011;13719;48.188;11.618;2023-08-17T00:57:21;8.38;;;5.15;;
25915;SDS011;13719;48.188;11.618;2023-08-17T00:59:50;9.02;;;4.30;;
25915;SDS011;13719;48.188;11.618;2023-08-17T01:02:30;8.50;;;4.35;;
25915;SDS011;13719;48.188;11.618;2023-08-17T01:04:59;8.77;;;4.90;;
25915;SDS011;13719;48.188;11.618;2023-08-17T01:07:28;6.60;;;4.53;;
25915;SDS011;13719;48.188;11.618;2023-08-17T01:09:58;12.55;;;4.60;;
25915;SDS011;13719;48.188;11.618;2023-08-17T01:12:28;6.57;;;4.38;;
25915;SDS011;13719;48.188;11.618;2023-08-17T01:15:00;5.93;;;4.63;;
25915;SDS011;13719;48.188;11.618;2023-08-17T01:17:33;7.75;;;4.72;;
25915;SDS011;13719;48.188;11.618;2023-08-17T01:20:01;6.28;;;4.65;;
25915;SDS011;13719;48.188;11.618;2023-08-17T01:22:31;8.52;;;4.20;;
25915;SDS011;13719;48.188;11.618;2023-08-17T01:25:03;15.23;;;4.90;;
25915;SDS011;13719;48.188;11.618;2023-08-17T01:27:33;8.07;;;5.10;;
25915;SDS011;13719;48.188;11.618;2023-08-17T01:30:04;7.35;;;4.35;;
25915;SDS011;13719;48.188;11.618;2023-08-17T01:32:35;5.88;;;4.45;;
25915;SDS011;13719;48.188;11.618;2023-08-17T01:35:07;5.97;;;4.38;;
25915;SDS011;13719;48.188;11.618;2023-08-17T01:37:37;11.02;;;4.93;;
25915;SDS011;13719;48.188;11.618;2023-08-17T01:40:08;7.82;;;5.38;;
25915;SDS011;13719;48.188;11.618;2023-08-17T01:42:37;8.73;;;4.82;;
25915;SDS011;13719;48.188;11.618;2023-08-17T01:45:07;8.02;;;4.68;;
25915;SDS011;13719;48.188;11.618;2023-08-17T01:47:35;7.72;;;4.25;;
25915;SDS011;13719;48.188;11.618;2023-08-17T01:50:04;10.13;;;5.38;;
25915;SDS011;13719;48.188;11.618;2023-08-17T01:52:33;7.15;;;5.18;;
25915;SDS011;13719;48.188;11.618;2023-08-17T01:55:01;7.35;;;4.63;;
25915;SDS011;13719;48.188;11.618;2023-08-17T01:57:31;7.35;;;4.65;;
25915;SDS011;13719;48.188;11.618;2023-08-17T02:00:00;7.28;;;4.68;;
25915;SDS011;13719;48.188;11.618;2023-08-17T02:02:29;6.45;;;4.15;;
25915;SDS011;13719;48.188;11.618;2023-08-17T02:04:57;7.40;;;4.90;;
25915;SDS011;13719;48.188;11.618;2023-08-17T02:07:26;6.72;;;4.85;;
25915;SDS011;13719;48.188;11.618;2023-08-17T02:09:54;10.70;;;5.53;;
25915;SDS011;13719;48.188;11.618;2023-08-17T02:12:22;8.32;;;4.95;;
25915;SDS011;13719;48.188;11.618;2023-08-17T02:14:52;9.82;;;4.90;;
25915;SDS011;13719;48.188;11.618;2023-08-17T02:17:21;6.72;;;4.85;;
25915;SDS011;13719;48.188;11.618;2023-08-17T02:19:49;8.60;;;5.35;;
25915;SDS011;13719;48.188;11.618;2023-08-17T02:22:18;9.05;;;4.78;;
25915;SDS011;13719;48.188;11.618;2023-08-17T02:24:46;7.78;;;4.55;;
25915;SDS011;13719;48.188;11.618;2023-08-17T02:27:15;8.63;;;5.05;;
25915;SDS011;13719;48.188;11.618;2023-08-17T02:29:43;10.75;;;4.38;;
25915;SDS011;13719;48.188;11.618;2023-08-17T02:32:13;6.10;;;4.43;;
25915;SDS011;13719;48.188;11.618;2023-08-17T02:34:41;7.28;;;4.68;;
25915;SDS011;13719;48.188;11.618;2023-08-17T02:37:09;9.68;;;4.68;;
25915;SDS011;13719;48.188;11.618;2023-08-17T02:39:38;9.80;;;4.47;;
25915;SDS011;13719;48.188;11.618;2023-08-17T02:42:06;6.47;;;4.50;;
25915;SDS011;13719;48.188;11.618;2023-08-17T02:44:35;5.55;;;4.03;;
25915;SDS011;13719;48.188;11.618;2023-08-17T02:47:03;8.18;;;4.35;;
25915;SDS011;13719;48.188;11.618;2023-08-17T02:49:33;5.28;;;4.32;;
25915;SDS011;13719;48.188;11.618;2023-08-17T02:52:02;5.85;;;4.18;;
25915;SDS011;13719;48.188;11.618;2023-08-17T02:54:30;9.02;;;4.55;;
25915;SDS011;13719;48.188;11.618;2023-08-17T02:56:59;8.82;;;5.07;;
25915;SDS011;13719;48.188;11.618;2023-08-17T02:59:27;7.50;;;4.88;;
25915;SDS011;13719;48.188;11.618;2023-08-17T03:01:56;6.22;;;4.45;;
25915;SDS011;13719;48.188;11.618;2023-08-17T03:04:24;7.80;;;4.70;;
25915;SDS011;13719;48.188;11.618;2023-08-17T03:06:54;8.82;;;4.78;;
25915;SDS011;13719;48.188;11.618;2023-08-17T03:09:22;8.65;;;4.60;;
25915;SDS011;13719;48.188;11.618;2023-08-17T03:11:50;6.80;;;4.40;;
25915;SDS011;13719;48.188;11.618;2023-08-17T03:14:18;6.80;;;4.93;;
25915;SDS011;13719;48.188;11.618;2023-08-17T03:16:47;5.75;;;4.35;;
25915;SDS011;13719;48.188;11.618;2023-08-17T03:19:15;6.72;;;4.50;;
25915;SDS011;13719;48.188;11.618;2023-08-17T03:21:44;6.60;;;5.05;;
25915;SDS011;13719;48.188;11.618;2023-08-17T03:24:13;6.15;;;4.32;;
25915;SDS011;13719;48.188;11.618;2023-08-17T03:26:42;7.03;;;4.70;;
25915;SDS011;13719;48.188;11.618;2023-08-17T03:29:10;9.43;;;4.60;;
25915;SDS011;13719;48.188;11.618;2023-08-17T03:31:38;8.57;;;4.75;;
25915;SDS011;13719;48.188;11.618;2023-08-17T03:34:06;8.13;;;4.68;;
25915;SDS011;13719;48.188;11.618;2023-08-17T03:36:35;7.07;;;4.93;;
25915;SDS011;13719;48.188;11.618;2023-08-17T03:39:03;8.80;;;4.75;;
25915;SDS011;13719;48.188;11.618;2023-08-17T03:41:33;7.65;;;4.80;;
25915;SDS011;13719;48.188;11.618;2023-08-17T03:44:03;5.60;;;4.45;;
25915;SDS011;13719;48.188;11.618;2023-08-17T03:46:32;9.82;;;5.03;;
25915;SDS011;13719;48.188;11.618;2023-08-17T03:49:01;8.77;;;4.90;;
25915;SDS011;13719;48.188;11.618;2023-08-17T03:51:29;8.40;;;5.32;;
25915;SDS011;13719;48.188;11.618;2023-08-17T03:53:58;10.35;;;5.97;;
25915;SDS011;13719;48.188;11.618;2023-08-17T03:56:26;7.38;;;4.68;;
25915;SDS011;13719;48.188;11.618;2023-08-17T03:58:56;6.32;;;5.10;;
25915;SDS011;13719;48.188;11.618;2023-08-17T04:01:24;8.02;;;4.70;;
25915;SDS011;13719;48.188;11.618;2023-08-17T04:03:52;6.95;;;4.50;;
25915;SDS011;13719;48.188;11.618;2023-08-17T04:06:21;9.75;;;4.88;;
25915;SDS011;13719;48.188;11.618;2023-08-17T04:08:49;8.70;;;4.68;;
25915;SDS011;13719;48.188;11.618;2023-08-17T04:11:17;8.48;;;4.65;;
25915;SDS011;13719;48.188;11.618;2023-08-17T04:13:46;7.50;;;5.10;;
25915;SDS011;13719;48.188;11.618;2023-08-17T04:16:15;6.40;;;4.13;;
25915;SDS011;13719;48.188;11.618;2023-08-17T04:18:44;9.02;;;4.32;;
25915;SDS011;13719;48.188;11.618;2023-08-17T04:21:12;9.85;;;4.85;;
25915;SDS011;13719;48.188;11.618;2023-08-17T04:23:41;7.72;;;3.97;;
25915;SDS011;13719;48.188;11.618;2023-08-17T04:26:09;6.90;;;4.80;;
25915;SDS011;13719;48.188;11.618;2023-08-17T04:28:37;9.80;;;4.63;;
25915;SDS011;13719;48.188;11.618;2023-08-17T04:31:06;5.90;;;4.30;;
25915;SDS011;13719;48.188;11.618;2023-08-17T04:33:36;7.07;;;4.97;;
25915;SDS011;13719;48.188;11.618;2023-08-17T04:36:04;6.90;;;4.72;;
25915;SDS011;13719;48.188;11.618;2023-08-17T04:38:32;7.60;;;4.95;;
25915;SDS011;13719;48.188;11.618;2023-08-17T04:41:01;7.25;;;5.22;;
25915;SDS011;13719;48.188;11.618;2023-08-17T04:43:29;8.38;;;4.55;;
25915;SDS011;13719;48.188;11.618;2023-08-17T04:45:57;9.20;;;4.78;;
25915;SDS011;13719;48.188;11.618;2023-08-17T04:48:26;7.93;;;4.50;;
25915;SDS011;13719;48.188;11.618;2023-08-17T04:50:55;8.38;;;4.50;;
25915;SDS011;13719;48.188;11.618;2023-08-17T04:53:24;8.02;;;4.05;;
25915;SDS011;13719;48.188;11.618;2023-08-17T04:55:52;8.35;;;4.85;;
25915;SDS011;13719;48.188;11.618;2023-08-17T04:58:20;7.88;;;4.72;;
25915;SDS011;13719;48.188;11.618;2023-08-17T05:00:49;7.38;;;4.68;;
25915;SDS011;13719;48.188;11.618;2023-08-17T05:03:17;7.90;;;4.85;;
25915;SDS011;13719;48.188;11.618;2023-08-17T05:06:00;7.05;;;4.68;;
25915;SDS011;13719;48.188;11.618;2023-08-17T05:08:29;8.10;;;5.03;;
25915;SDS011;13719;48.188;11.618;2023-08-17T05:10:58;6.60;;;4.50;;
25915;SDS011;13719;48.188;11.618;2023-08-17T05:13:26;6.32;;;4.57;;
25915;SDS011;13719;48.188;11.618;2023-08-17T05:15:54;7.97;;;4.78;;
25915;SDS011;13719;48.188;11.618;2023-08-17T05:18:23;8.55;;;4.95;;
25915;SDS011;13719;48.188;11.618;2023-08-17T05:20:51;8.68;;;4.13;;
25915;SDS011;13719;48.188;11.618;2023-08-17T05:23:21;5.32;;;4.13;;
25915;SDS011;13719;48.188;11.618;2023-08-17T05:25:49;6.63;;;4.50;;
25915;SDS011;13719;48.188;11.618;2023-08-17T05:28:17;10.35;;;4.38;;
25915;SDS011;13719;48.188;11.618;2023-08-17T05:30:46;8.68;;;4.28;;
25915;SDS011;13719;48.188;11.618;2023-08-17T05:33:14;9.77;;;4.72;;
25915;SDS011;13719;48.188;11.618;2023-08-17T05:35:42;7.32;;;4.22;;
25915;SDS011;13719;48.188;11.618;2023-08-17T05:38:11;7.45;;;4.65;;
25915;SDS011;13719;48.188;11.618;2023-08-17T05:40:41;6.55;;;4.45;;
25915;SDS011;13719;48.188;11.618;2023-08-17T05:43:09;6.05;;;4.35;;
25915;SDS011;13719;48.188;11.618;2023-08-17T05:45:37;7.93;;;4.80;;
25915;SDS011;13719;48.188;11.618;2023-08-17T05:48:06;7.47;;;5.05;;
25915;SDS011;13719;48.188;11.618;2023-08-17T05:50:35;12.88;;;4.90;;
25915;SDS011;13719;48.188;11.618;2023-08-17T05:53:03;6.80;;;4.82;;
25915;SDS011;13719;48.188;11.618;2023-08-17T05:55:32;7.75;;;4.93;;
25915;SDS011;13719;48.188;11.618;2023-08-17T05:58:01;8.20;;;4.60;;
25915;SDS011;13719;48.188;11.618;2023-08-17T06:00:30;8.57;;;4.43;;
25915;SDS011;13719;48.188;11.618;2023-08-17T06:02:58;6.47;;;4.57;;
25915;SDS011;13719;48.188;11.618;2023-08-17T06:05:28;7.43;;;4.80;;
25915;SDS011;13719;48.188;11.618;2023-08-17T06:07:57;7.22;;;4.88;;
25915;SDS011;13719;48.188;11.618;2023-08-17T06:10:25;8.90;;;4.32;;
25915;SDS011;13719;48.188;11.618;2023-08-17T06:12:54;8.05;;;5.32;;
25915;SDS011;13719;48.188;11.618;2023-08-17T06:15:24;10.30;;;4.90;;
25915;SDS011;13719;48.188;11.618;2023-08-17T06:17:52;8.48;;;4.97;;
25915;SDS011;13719;48.188;11.618;2023-08-17T06:20:21;6.25;;;4.75;;
25915;SDS011;13719;48.188;11.618;2023-08-17T06:22:49;9.27;;;5.50;;
25915;SDS011;13719;48.188;11.618;2023-08-17T06:25:18;9.75;;;6.38;;
25915;SDS011;13719;48.188;11.618;2023-08-17T06:27:48;12.57;;;5.95;;
25915;SDS011;13719;48.188;11.618;2023-08-17T06:30:16;9.52;;;5.85;;
25915;SDS011;13719;48.188;11.618;2023-08-17T06:32:46;9.30;;;6.15;;
25915;SDS011;13719;48.188;11.618;2023-08-17T06:35:15;7.95;;;5.97;;
25915;SDS011;13719;48.188;11.618;2023-08-17T06:37:43;11.27;;;6.18;;
25915;SDS011;13719;48.188;11.618;2023-08-17T06:40:11;10.32;;;5.95;;
25915;SDS011;13719;48.188;11.618;2023-08-17T06:42:40;12.43;;;5.93;;
25915;SDS011;13719;48.188;11.618;2023-08-17T06:45:08;9.30;;;5.95;;
25915;SDS011;13719;48.188;11.618;2023-08-17T06:47:37;10.30;;;6.43;;
25915;SDS011;13719;48.188;11.618;2023-08-17T06:50:07;13.85;;;6.07;;
25915;SDS011;13719;48.188;11.618;2023-08-17T06:52:38;11.00;;;5.53;;
25915;SDS011;13719;48.188;11.618;2023-08-17T06:55:07;11.15;;;6.18;;
25915;SDS011;13719;48.188;11.618;2023-08-17T06:57:35;7.97;;;5.68;;
25915;SDS011;13719;48.188;11.618;2023-08-17T07:00:04;9.77;;;5.57;;
25915;SDS011;13719;48.188;11.618;2023-08-17T07:02:33;14.93;;;6.43;;
25915;SDS011;13719;48.188;11.618;2023-08-17T07:05:20;10.02;;;5.80;;
25915;SDS011;13719;48.188;11.618;2023-08-17T07:07:50;9.90;;;6.32;;
25915;SDS011;13719;48.188;11.618;2023-08-17T07:10:19;10.10;;;5.85;;
25915;SDS011;13719;48.188;11.618;2023-08-17T07:12:47;9.07;;;5.70;;
25915;SDS011;13719;48.188;11.618;2023-08-17T07:15:16;10.35;;;5.65;;
25915;SDS011;13719;48.188;11.618;2023-08-17T07:17:44;7.68;;;5.57;;
25915;SDS011;13719;48.188;11.618;2023-08-17T07:20:13;7.78;;;4.80;;
25915;SDS011;13719;48.188;11.618;2023-08-17T07:22:48;8.68;;;5.28;;
25915;SDS011;13719;48.188;11.618;2023-08-17T07:25:17;8.15;;;5.50;;
25915;SDS011;13719;48.188;11.618;2023-08-17T07:27:45;8.77;;;4.60;;
25915;SDS011;13719;48.188;11.618;2023-08-17T07:30:14;8.50;;;4.97;;
25915;SDS011;13719;48.188;11.618;2023-08-17T07:32:42;10.32;;;5.10;;
25915;SDS011;13719;48.188;11.618;2023-08-17T07:35:10;13.60;;;5.35;;
25915;SDS011;13719;48.188;11.618;2023-08-17T07:37:39;8.75;;;6.18;;
25915;SDS011;13719;48.188;11.618;2023-08-17T07:40:10;11.57;;;5.40;;
25915;SDS011;13719;48.188;11.618;2023-08-17T07:42:38;7.40;;;5.60;;
25915;SDS011;13719;48.188;11.618;2023-08-17T07:45:07;10.68;;;5.40;;
25915;SDS011;13719;48.188;11.618;2023-08-17T07:47:36;13.43;;;5.28;;
25915;SDS011;13719;48.188;11.618;2023-08-17T07:50:04;11.07;;;5.03;;
25915;SDS011;13719;48.188;11.618;2023-08-17T07:52:33;12.88;;;5.75;;
25915;SDS011;13719;48.188;11.618;2023-08-17T07:55:02;11.45;;;5.60;;
25915;SDS011;13719;48.188;11.618;2023-08-17T07:57:32;9.25;;;4.80;;
25915;SDS011;13719;48.188;11.618;2023-08-17T08:00:01;7.10;;;4.97;;
25915;SDS011;13719;48.188;11.618;2023-08-17T08:02:29;7.93;;;5.28;;
25915;SDS011;13719;48.188;11.618;2023-08-17T08:04:58;8.68;;;4.97;;
25915;SDS011;13719;48.188;11.618;2023-08-17T08:07:26;8.00;;;5.18;;
25915;SDS011;13719;48.188;11.618;2023-08-17T08:09:55;7.40;;;5.10;;
25915;SDS011;13719;48.188;11.618;2023-08-17T08:12:23;8.88;;;5.03;;
25915;SDS011;13719;48.188;11.618;2023-08-17T08:14:53;9.02;;;5.28;;
25915;SDS011;13719;48.188;11.618;2023-08-17T08:17:22;7.97;;;4.85;;
25915;SDS011;13719;48.188;11.618;2023-08-17T08:19:50;7.13;;;4.90;;
25915;SDS011;13719;48.188;11.618;2023-08-17T08:22:20;6.88;;;4.88;;
25915;SDS011;13719;48.188;11.618;2023-08-17T08:24:48;7.13;;;4.93;;
25915;SDS011;13719;48.188;11.618;2023-08-17T08:27:16;7.72;;;4.80;;
25915;SDS011;13719;48.188;11.618;2023-08-17T08:29:45;6.05;;;4.47;;
25915;SDS011;13719;48.188;11.618;2023-08-17T08:32:15;6.88;;;4.70;;
25915;SDS011;13719;48.188;11.618;2023-08-17T08:34:46;9.93;;;4.82;;
25915;SDS011;13719;48.188;11.618;2023-08-17T08:37:14;7.50;;;5.22;;
25915;SDS011;13719;48.188;11.618;2023-08-17T08:39:49;7.95;;;5.35;;
25915;SDS011;13719;48.188;11.618;2023-08-17T08:42:18;8.48;;;5.03;;
25915;SDS011;13719;48.188;11.618;2023-08-17T08:44:46;8.55;;;5.38;;
25915;SDS011;13719;48.188;11.618;2023-08-17T08:47:17;10.65;;;5.35;;
25915;SDS011;13719;48.188;11.618;2023-08-17T08:49:47;6.97;;;4.57;;
25915;SDS011;13719;48.188;11.618;2023-08-17T08:52:19;9.05;;;5.05;;
25915;SDS011;13719;48.188;11.618;2023-08-17T08:54:50;7.47;;;5.13;;
25915;SDS011;13719;48.188;11.618;2023-08-17T08:57:18;7.38;;;4.57;;
25915;SDS011;13719;48.188;11.618;2023-08-17T08:59:47;6.20;;;4.93;;
25915;SDS011;13719;48.188;11.618;2023-08-17T09:02:17;6.88;;;5.00;;
25915;SDS011;13719;48.188;11.618;2023-08-17T09:04:45;7.95;;;5.22;;
25915;SDS011;13719;48.188;11.618;2023-08-17T09:07:14;9.25;;;5.20;;
25915;SDS011;13719;48.188;11.618;2023-08-17T09:09:44;7.50;;;5.50;;
25915;SDS011;13719;48.188;11.618;2023-08-17T09:12:13;10.38;;;4.95;;
25915;SDS011;13719;48.188;11.618;2023-08-17T09:14:55;9.13;;;5.13;;
25915;SDS011;13719;48.188;11.618;2023-08-17T09:17:25;7.10;;;4.97;;
25915;SDS011;13719;48.188;11.618;2023-08-17T09:19:54;9.50;;;5.10;;
25915;SDS011;13719;48.188;11.618;2023-08-17T09:22:22;4.85;;;4.35;;
25915;SDS011;13719;48.188;11.618;2023-08-17T09:24:52;8.70;;;4.72;;
25915;SDS011;13719;48.188;11.618;2023-08-17T09:27:20;6.10;;;4.82;;
25915;SDS011;13719;48.188;11.618;2023-08-17T09:29:48;6.55;;;4.68;;
25915;SDS011;13719;48.188;11.618;2023-08-17T09:32:17;6.38;;;4.90;;
25915;SDS011;13719;48.188;11.618;2023-08-17T09:34:46;5.43;;;4.60;;
25915;SDS011;13719;48.188;11.618;2023-08-17T09:37:17;5.47;;;4.60;;
25915;SDS011;13719;48.188;11.618;2023-08-17T09:39:45;5.65;;;4.50;;
25915;SDS011;13719;48.188;11.618;2023-08-17T09:42:14;6.88;;;4.63;;
25915;SDS011;13719;48.188;11.618;2023-08-17T09:44:44;6.78;;;4.65;;
25915;SDS011;13719;48.188;11.618;2023-08-17T09:47:12;8.25;;;5.03;;
25915;SDS011;13719;48.188;11.618;2023-08-17T09:49:41;5.35;;;4.35;;
25915;SDS011;13719;48.188;11.618;2023-08-17T09:52:11;8.52;;;4.60;;
25915;SDS011;13719;48.188;11.618;2023-08-17T09:54:40;6.80;;;4.70;;
25915;SDS011;13719;48.188;11.618;2023-08-17T09:57:09;8.85;;;5.00;;
25915;SDS011;13719;48.188;11.618;2023-08-17T09:59:37;7.63;;;5.32;;
25915;SDS011;13719;48.188;11.618;2023-08-17T10:02:07;6.05;;;4.18;;
25915;SDS011;13719;48.188;11.618;2023-08-17T10:04:40;8.70;;;4.93;;
25915;SDS011;13719;48.188;11.618;2023-08-17T10:07:09;8.13;;;4.40;;
25915;SDS011;13719;48.188;11.618;2023-08-17T10:09:42;7.93;;;4.82;;
25915;SDS011;13719;48.188;11.618;2023-08-17T10:12:15;6.35;;;4.60;;
25915;SDS011;13719;48.188;11.618;2023-08-17T10:14:45;6.97;;;4.70;;
25915;SDS011;13719;48.188;11.618;2023-08-17T10:17:18;7.15;;;4.25;;
25915;SDS011;13719;48.188;11.618;2023-08-17T10:19:49;4.60;;;3.83;;
25915;SDS011;13719;48.188;11.618;2023-08-17T10:22:19;6.03;;;4.43;;
25915;SDS011;13719;48.188;11.618;2023-08-17T10:24:52;7.70;;;4.13;;
25915;SDS011;13719;48.188;11.618;2023-08-17T10:27:21;5.95;;;3.88;;
25915;SDS011;13719;48.188;11.618;2023-08-17T10:29:50;8.18;;;4.65;;
25915;SDS011;13719;48.188;11.618;2023-08-17T10:32:20;5.22;;;4.38;;
25915;SDS011;13719;48.188;11.618;2023-08-17T10:34:50;6.10;;;4.68;;
25915;SDS011;13719;48.188;11.618;2023-08-17T10:37:19;7.60;;;4.82;;
25915;SDS011;13719;48.188;11.618;2023-08-17T10:39:51;7.38;;;4.43;;
25915;SDS011;13719;48.188;11.618;2023-08-17T10:42:29;5.60;;;4.47;;
25915;SDS011;13719;48.188;11.618;2023-08-17T10:44:59;6.18;;;4.68;;
25915;SDS011;13719;48.188;11.618;2023-08-17T10:47:30;5.78;;;4.20;;
25915;SDS011;13719;48.188;11.618;2023-08-17T10:50:03;8.18;;;4.75;;
25915;SDS011;13719;48.188;11.618;2023-08-17T10:52:32;5.63;;;4.32;;
25915;SDS011;13719;48.188;11.618;2023-08-17T10:55:03;4.80;;;4.25;;
25915;SDS011;13719;48.188;11.618;2023-08-17T10:57:33;6.88;;;4.70;;
25915;SDS011;13719;48.188;11.618;2023-08-17T11:00:06;5.80;;;4.60;;
25915;SDS011;13719;48.188;11.618;2023-08-17T11:02:37;6.32;;;4.75;;
25915;SDS011;13719;48.188;11.618;2023-08-17T11:05:06;5.60;;;4.50;;
25915;SDS011;13719;48.188;11.618;2023-08-17T11:07:38;5.28;;;4.07;;
25915;SDS011;13719;48.188;11.618;2023-08-17T11:10:27;6.22;;;4.85;;
25915;SDS011;13719;48.188;11.618;2023-08-17T11:12:57;4.97;;;4.03;;
25915;SDS011;13719;48.188;11.618;2023-08-17T11:15:34;6.72;;;4.88;;
25915;SDS011;13719;48.188;11.618;2023-08-17T11:18:05;5.32;;;3.72;;
25915;SDS011;13719;48.188;11.618;2023-08-17T11:20:36;6.55;;;4.43;;
25915;SDS011;13719;48.188;11.618;2023-08-17T11:23:05;6.78;;;4.22;;
25915;SDS011;13719;48.188;11.618;2023-08-17T11:25:36;12.07;;;4.78;;
25915;SDS011;13719;48.188;11.618;2023-08-17T11:28:06;5.53;;;4.43;;
25915;SDS011;13719;48.188;11.618;2023-08-17T11:30:35;5.93;;;4.70;;
25915;SDS011;13719;48.188;11.618;2023-08-17T11:33:06;8.65;;;4.63;;
25915;SDS011;13719;48.188;11.618;2023-08-17T11:35:35;7.50;;;4.28;;
25915;SDS011;13719;48.188;11.618;2023-08-17T11:38:03;5.28;;;4.20;;
25915;SDS011;13719;48.188;11.618;2023-08-17T11:40:35;5.45;;;4.18;;
25915;SDS011;13719;48.188;11.618;2023-08-17T11:43:04;6.45;;;4.82;;
25915;SDS011;13719;48.188;11.618;2023-08-17T11:45:34;5.32;;;4.50;;
25915;SDS011;13719;48.188;11.618;2023-08-17T11:48:02;6.88;;;4.53;;
25915;SDS011;13719;48.188;11.618;2023-08-17T11:50:31;6.10;;;4.22;;
25915;SDS011;13719;48.188;11.618;2023-08-17T11:53:05;5.03;;;4.10;;
25915;SDS011;13719;48.188;11.618;2023-08-17T11:55:33;6.72;;;4.80;;
25915;SDS011;13719;48.188;11.618;2023-08-17T11:58:03;5.75;;;4.40;;
25915;SDS011;13719;48.188;11.618;2023-08-17T12:00:36;6.25;;;4.35;;
25915;SDS011;13719;48.188;11.618;2023-08-17T12:03:05;6.15;;;4.75;;
25915;SDS011;13719;48.188;11.618;2023-08-17T12:05:33;5.45;;;4.50;;
25915;SDS011;13719;48.188;11.618;2023-08-17T12:08:02;5.40;;;4.72;;
25915;SDS011;13719;48.188;11.618;2023-08-17T12:10:31;5.97;;;4.28;;
25915;SDS011;13719;48.188;11.618;2023-08-17T12:13:00;6.90;;;4.70;;
25915;SDS011;13719;48.188;11.618;2023-08-17T12:15:31;7.22;;;4.40;;
25915;SDS011;13719;48.188;11.618;2023-08-17T12:18:01;4.70;;;4.20;;
25915;SDS011;13719;48.188;11.618;2023-08-17T12:20:30;6.80;;;5.10;;
25915;SDS011;13719;48.188;11.618;2023-08-17T12:23:02;6.70;;;4.60;;
25915;SDS011;13719;48.188;11.618;2023-08-17T12:25:30;6.10;;;4.35;;
25915;SDS011;13719;48.188;11.618;2023-08-17T12:27:59;7.82;;;4.35;;
25915;SDS011;13719;48.188;11.618;2023-08-17T12:30:28;5.68;;;4.30;;
25915;SDS011;13719;48.188;11.618;2023-08-17T12:32:59;5.95;;;4.43;;
25915;SDS011;13719;48.188;11.618;2023-08-17T12:35:30;5.35;;;4.20;;
25915;SDS011;13719;48.188;11.618;2023-08-17T12:37:58;7.00;;;3.88;;
25915;SDS011;13719;48.188;11.618;2023-08-17T12:40:26;6.05;;;4.00;;
25915;SDS011;13719;48.188;11.618;2023-08-17T12:42:55;4.57;;;3.95;;
25915;SDS011;13719;48.188;11.618;2023-08-17T12:45:23;4.90;;;4.13;;
25915;SDS011;13719;48.188;11.618;2023-08-17T12:47:54;7.35;;;3.95;;
25915;SDS011;13719;48.188;11.618;2023-08-17T12:50:23;4.88;;;4.10;;
25915;SDS011;13719;48.188;11.618;2023-08-17T12:52:52;4.65;;;3.90;;
25915;SDS011;13719;48.188;11.618;2023-08-17T12:55:20;5.50;;;3.90;;
25915;SDS011;13719;48.188;11.618;2023-08-17T12:57:49;5.65;;;3.72;;
25915;SDS011;13719;48.188;11.618;2023-08-17T13:00:17;7.07;;;3.92;;
25915;SDS011;13719;48.188;11.618;2023-08-17T13:02:45;4.80;;;3.60;;
25915;SDS011;13719;48.188;11.618;2023-08-17T13:05:17;3.85;;;3.47;;
25915;SDS011;13719;48.188;11.618;2023-08-17T13:07:47;5.05;;;3.80;;
25915;SDS011;13719;48.188;11.618;2023-08-17T13:10:15;4.88;;;3.45;;
25915;SDS011;13719;48.188;11.618;2023-08-17T13:12:44;3.30;;;3.00;;
25915;SDS011;13719;48.188;11.618;2023-08-17T13:15:13;3.88;;;3.40;;
25915;SDS011;13719;48.188;11.618;2023-08-17T13:17:42;5.07;;;3.10;;
25915;SDS011;13719;48.188;11.618;2023-08-17T13:20:10;4.30;;;3.50;;
25915;SDS011;13719;48.188;11.618;2023-08-17T13:22:39;6.63;;;3.72;;
25915;SDS011;13719;48.188;11.618;2023-08-17T13:25:09;6.43;;;3.88;;
25915;SDS011;13719;48.188;11.618;2023-08-17T13:27:37;4.85;;;3.40;;
25915;SDS011;13719;48.188;11.618;2023-08-17T13:30:06;4.53;;;3.85;;
25915;SDS011;13719;48.188;11.618;2023-08-17T13:32:35;5.38;;;4.10;;
25915;SDS011;13719;48.188;11.618;2023-08-17T13:35:03;4.95;;;3.97;;
25915;SDS011;13719;48.188;11.618;2023-08-17T13:37:32;5.72;;;4.28;;
25915;SDS011;13719;48.188;11.618;2023-08-17T13:40:01;5.82;;;3.95;;
25915;SDS011;13719;48.188;11.618;2023-08-17T13:42:30;5.00;;;4.38;;
25915;SDS011;13719;48.188;11.618;2023-08-17T13:44:59;5.35;;;4.43;;
25915;SDS011;13719;48.188;11.618;2023-08-17T13:47:27;5.22;;;4.53;;
25915;SDS011;13719;48.188;11.618;2023-08-17T13:49:56;5.85;;;4.30;;
25915;SDS011;13719;48.188;11.618;2023-08-17T13:52:24;6.15;;;5.05;;
25915;SDS011;13719;48.188;11.618;2023-08-17T13:54:53;5.88;;;4.80;;
25915;SDS011;13719;48.188;11.618;2023-08-17T13:57:22;9.27;;;5.80;;
25915;SDS011;13719;48.188;11.618;2023-08-17T13:59:52;6.97;;;5.72;;
25915;SDS011;13719;48.188;11.618;2023-08-17T14:02:20;8.70;;;5.68;;
25915;SDS011;13719;48.188;11.618;2023-08-17T14:04:49;5.97;;;5.07;;
25915;SDS011;13719;48.188;11.618;2023-08-17T14:07:17;6.22;;;5.55;;
25915;SDS011;13719;48.188;11.618;2023-08-17T14:09:46;6.43;;;5.57;;
25915;SDS011;13719;48.188;11.618;2023-08-17T14:12:32;8.35;;;5.10;;
25915;SDS011;13719;48.188;11.618;2023-08-17T14:15:02;6.72;;;5.05;;
25915;SDS011;13719;48.188;11.618;2023-08-17T14:17:31;7.18;;;5.25;;
25915;SDS011;13719;48.188;11.618;2023-08-17T14:19:59;8.57;;;5.32;;
25915;SDS011;13719;48.188;11.618;2023-08-17T14:22:28;6.35;;;5.20;;
25915;SDS011;13719;48.188;11.618;2023-08-17T14:24:57;8.88;;;5.22;;
25915;SDS011;13719;48.188;11.618;2023-08-17T14:27:26;7.22;;;5.13;;
25915;SDS011;13719;48.188;11.618;2023-08-17T14:29:54;6.65;;;5.20;;
25915;SDS011;13719;48.188;11.618;2023-08-17T14:32:24;7.07;;;5.57;;
25915;SDS011;13719;48.188;11.618;2023-08-17T14:34:52;7.70;;;5.18;;
25915;SDS011;13719;48.188;11.618;2023-08-17T14:37:21;6.72;;;5.07;;
25915;SDS011;13719;48.188;11.618;2023-08-17T14:39:50;7.65;;;5.72;;
25915;SDS011;13719;48.188;11.618;2023-08-17T14:42:19;8.15;;;5.65;;
25915;SDS011;13719;48.188;11.618;2023-08-17T14:44:47;8.85;;;5.43;;